createdAt,value
2019-02-27T00:00:11.431Z,99.80
2019-02-27T00:02:41.222Z,99.00
2019-02-27T00:05:11.277Z,99.90
2019-02-27T00:07:41.233Z,99.80
2019-02-27T00:10:11.592Z,98.30
2019-02-27T00:12:41.469Z,97.50
2019-02-27T00:15:11.453Z,98.10
2019-02-27T00:17:41.335Z,98.00
2019-02-27T00:20:11.316Z,98.80
2019-02-27T00:22:41.232Z,98.80
2019-02-27T00:25:11.590Z,99.80
2019-02-27T00:27:41.595Z,99.30
2019-02-27T00:30:12.447Z,98.50
2019-02-27T00:32:42.340Z,98.60
2019-02-27T00:35:12.626Z,98.70
2019-02-27T00:37:42.521Z,98.40
2019-02-27T00:40:12.683Z,99.90
2019-02-27T00:42:42.551Z,99.90
2019-02-27T00:45:12.576Z,99.90
2019-02-27T00:47:42.440Z,99.90
2019-02-27T00:50:12.355Z,99.90
2019-02-27T00:52:42.235Z,99.90
2019-02-27T00:55:12.331Z,99.90
2019-02-27T00:57:42.232Z,99.90
2019-02-27T01:00:13.858Z,99.90
2019-02-27T01:02:43.721Z,99.90
2019-02-27T01:05:14.015Z,99.90
2019-02-27T01:07:43.896Z,99.90
2019-02-27T01:10:13.849Z,99.90
2019-02-27T01:12:43.727Z,99.90
2019-02-27T01:15:14.169Z,99.90
2019-02-27T01:17:44.070Z,99.90
2019-02-27T01:20:14.163Z,99.90
2019-02-27T01:22:44.078Z,99.90
2019-02-27T01:25:14.308Z,99.90
2019-02-27T01:27:44.196Z,99.90
2019-02-27T01:30:15.088Z,99.90
2019-02-27T01:32:44.936Z,99.90
2019-02-27T01:35:18.810Z,99.90
2019-02-27T01:37:47.072Z,99.90
2019-02-27T01:40:17.851Z,99.90
2019-02-27T01:42:48.496Z,99.90
2019-02-27T01:45:21.200Z,99.90
2019-02-27T01:47:50.051Z,99.90
2019-02-27T01:50:34.068Z,99.90
2019-02-27T01:53:07.072Z,99.90
2019-02-27T01:55:36.093Z,99.90
2019-02-27T01:58:09.185Z,99.90
2019-02-27T02:00:37.971Z,99.90
2019-02-27T02:03:07.983Z,99.90
2019-02-27T02:05:37.907Z,99.90
2019-02-27T02:08:13.487Z,99.90
2019-02-27T02:10:40.952Z,99.90
2019-02-27T02:13:39.560Z,99.90
2019-02-27T02:16:16.660Z,99.90
2019-02-27T02:19:23.485Z,99.90
2019-02-27T02:22:46.461Z,99.90
2019-02-27T02:26:05.632Z,99.90
2019-02-27T02:29:34.733Z,99.90
2019-02-27T02:32:54.336Z,99.90
2019-02-27T02:35:49.787Z,99.90
2019-02-27T02:39:19.443Z,99.90
2019-02-27T02:42:24.374Z,99.90
2019-02-27T02:45:41.996Z,99.90
2019-02-27T02:48:52.457Z,99.90
2019-02-27T02:51:33.917Z,99.90
2019-02-27T02:54:37.927Z,99.90
2019-02-27T02:58:04.299Z,99.90
2019-02-27T03:00:56.592Z,99.90
2019-02-27T03:03:53.769Z,99.90
2019-02-27T03:07:07.217Z,99.90
2019-02-27T03:10:07.138Z,99.90
2019-02-27T03:13:20.191Z,99.90
2019-02-27T03:16:32.351Z,99.90
2019-02-27T03:19:41.444Z,99.90
2019-02-27T03:22:27.981Z,99.90
2019-02-27T03:25:10.376Z,99.90
2019-02-27T03:28:16.321Z,99.90
2019-02-27T03:31:25.265Z,99.90
2019-02-27T03:34:21.925Z,99.90
2019-02-27T03:37:19.919Z,99.90
2019-02-27T03:40:45.126Z,99.90
2019-02-27T03:44:06.945Z,99.90
2019-02-27T03:47:16.633Z,99.90
2019-02-27T03:50:31.645Z,99.90
2019-02-27T03:53:14.664Z,99.90
2019-02-27T03:56:11.509Z,99.90
2019-02-27T03:58:53.624Z,99.90
2019-02-27T04:01:59.203Z,99.90
2019-02-27T04:05:06.858Z,99.90
2019-02-27T04:08:12.487Z,99.90
2019-02-27T04:10:42.403Z,99.90
2019-02-27T04:13:12.352Z,99.90
2019-02-27T04:15:42.323Z,99.90
2019-02-27T04:18:10.252Z,99.90
2019-02-27T04:20:40.316Z,99.90
2019-02-27T04:23:12.501Z,99.90
2019-02-27T04:25:41.746Z,99.90
2019-02-27T04:28:11.624Z,99.90
2019-02-27T04:30:41.488Z,99.90
2019-02-27T04:33:11.378Z,99.90
2019-02-27T04:35:41.310Z,99.90
2019-02-27T04:38:11.216Z,99.90
2019-02-27T04:40:41.719Z,99.90
2019-02-27T04:43:13.003Z,99.90
2019-02-27T04:45:43.915Z,99.90
2019-02-27T04:48:14.492Z,99.90
2019-02-27T04:50:44.792Z,99.90
2019-02-27T04:53:14.768Z,99.90
2019-02-27T04:55:44.753Z,99.90
2019-02-27T04:58:14.624Z,99.90
2019-02-27T05:00:44.534Z,99.90
2019-02-27T05:03:14.454Z,99.90
2019-02-27T05:05:44.341Z,99.90
2019-02-27T05:08:14.199Z,99.90
2019-02-27T05:10:44.111Z,99.90
2019-02-27T05:13:13.979Z,99.90
2019-02-27T05:15:43.864Z,99.90
2019-02-27T05:18:13.888Z,99.90
2019-02-27T05:20:45.724Z,99.90
2019-02-27T05:23:15.403Z,99.90
2019-02-27T05:25:45.303Z,99.90
2019-02-27T05:28:15.254Z,99.90
2019-02-27T05:30:45.918Z,99.90
2019-02-27T05:33:15.882Z,99.90
2019-02-27T05:35:45.843Z,99.90
2019-02-27T05:38:15.711Z,99.90
2019-02-27T05:40:45.582Z,99.90
2019-02-27T05:43:16.039Z,99.90
2019-02-27T05:45:45.942Z,99.90
2019-02-27T05:48:19.680Z,99.90
2019-02-27T05:50:47.691Z,99.90
2019-02-27T05:53:22.094Z,99.90
2019-02-27T05:55:49.667Z,99.90
2019-02-27T05:58:22.859Z,99.90
2019-02-27T06:00:51.214Z,99.90
2019-02-27T06:03:21.130Z,99.90
2019-02-27T06:05:51.021Z,99.90
2019-02-27T06:08:21.391Z,99.90
2019-02-27T06:10:55.220Z,99.90
2019-02-27T06:13:24.703Z,99.90
2019-02-27T06:15:55.069Z,99.90
2019-02-27T06:18:25.250Z,99.90
2019-02-27T06:20:55.471Z,99.90
2019-02-27T06:23:25.732Z,99.90
2019-02-27T06:25:59.149Z,99.90
2019-02-27T06:28:28.186Z,99.90
2019-02-27T06:30:58.409Z,99.90
2019-02-27T06:33:28.667Z,99.90
2019-02-27T06:35:58.898Z,99.90
2019-02-27T06:38:29.499Z,99.90
2019-02-27T06:40:59.705Z,99.90
2019-02-27T06:43:29.927Z,99.90
2019-02-27T06:46:00.200Z,99.90
2019-02-27T06:48:30.480Z,99.90
2019-02-27T06:51:00.930Z,99.90
2019-02-27T06:53:31.962Z,99.90
2019-02-27T06:56:03.511Z,99.90
2019-02-27T06:58:34.128Z,99.90
2019-02-27T07:01:07.153Z,99.90
2019-02-27T07:03:36.491Z,99.90
2019-02-27T07:06:06.909Z,99.90
2019-02-27T07:08:38.176Z,99.90
2019-02-27T07:11:10.637Z,99.90
2019-02-27T07:13:40.929Z,99.90
2019-02-27T07:16:11.232Z,99.90
2019-02-27T07:18:42.357Z,99.90
2019-02-27T07:21:12.679Z,99.90
2019-02-27T07:23:42.980Z,99.90
2019-02-27T07:26:15.848Z,99.90
2019-02-27T07:28:45.267Z,99.90
2019-02-27T07:31:18.316Z,99.90
2019-02-27T07:33:47.415Z,99.90
2019-02-27T07:36:17.606Z,99.90
2019-02-27T07:38:47.927Z,99.90
2019-02-27T07:41:20.757Z,99.90
2019-02-27T07:43:50.083Z,99.90
2019-02-27T07:46:22.397Z,99.90
2019-02-27T07:48:56.260Z,99.90
2019-02-27T07:51:24.558Z,99.90
2019-02-27T07:53:54.841Z,99.90
2019-02-27T07:56:25.362Z,99.90
2019-02-27T07:58:55.633Z,99.90
2019-02-27T08:01:26.105Z,99.90
2019-02-27T08:03:56.010Z,99.90
2019-02-27T08:06:25.892Z,99.90
2019-02-27T08:08:57.158Z,99.90
2019-02-27T08:11:27.479Z,99.90
2019-02-27T08:13:57.539Z,99.90
2019-02-27T08:16:27.495Z,99.90
2019-02-27T08:18:57.800Z,99.90
2019-02-27T08:21:27.755Z,99.90
2019-02-27T08:23:57.693Z,99.90
2019-02-27T08:26:27.608Z,99.90
2019-02-27T08:28:57.724Z,99.90
2019-02-27T08:31:28.173Z,99.90
2019-02-27T08:33:58.780Z,99.90
2019-02-27T08:36:28.695Z,99.90
2019-02-27T08:38:58.596Z,99.90
2019-02-27T08:41:29.091Z,99.90
2019-02-27T08:44:00.324Z,99.90
2019-02-27T08:46:30.195Z,99.90
2019-02-27T08:49:00.161Z,99.90
2019-02-27T08:51:30.073Z,99.90
2019-02-27T08:54:02.368Z,99.90
2019-02-27T08:56:32.278Z,99.90
2019-02-27T08:59:05.063Z,99.90
2019-02-27T09:01:33.824Z,99.90
2019-02-27T09:04:06.072Z,99.90
2019-02-27T09:06:35.603Z,99.90
2019-02-27T09:09:07.954Z,99.90
2019-02-27T09:11:40.130Z,99.90
2019-02-27T09:14:11.896Z,99.90
2019-02-27T09:16:41.223Z,99.90
2019-02-27T09:21:41.002Z,99.90
2019-02-27T09:24:10.909Z,99.90
2019-02-27T09:26:42.362Z,99.30
2019-02-27T09:29:12.378Z,99.40
2019-02-27T09:31:50.572Z,99.90
2019-02-27T09:34:14.027Z,99.80
2019-02-27T09:36:43.908Z,98.90
2019-02-27T09:39:13.911Z,99.90
2019-02-27T09:41:46.915Z,98.60
2019-02-27T09:44:15.408Z,98.70
2019-02-27T09:46:45.455Z,97.70
2019-02-27T09:49:15.463Z,98.00
2019-02-27T09:51:45.353Z,98.10
2019-02-27T09:54:15.280Z,97.20
2019-02-27T09:56:45.181Z,94.10
2019-02-27T09:59:16.803Z,94.50
2019-02-27T10:01:46.911Z,93.50
2019-02-27T10:04:16.910Z,92.00
2019-02-27T10:06:46.824Z,92.20
2019-02-27T10:09:20.879Z,92.10
2019-02-27T10:11:52.179Z,91.30
2019-02-27T10:14:22.303Z,91.30
2019-02-27T10:16:52.259Z,90.30
2019-02-27T10:19:22.379Z,90.40
2019-02-27T10:21:52.398Z,90.90
2019-02-27T10:24:22.318Z,90.70
2019-02-27T10:26:53.558Z,88.30
2019-02-27T10:29:23.965Z,88.50
2019-02-27T10:31:55.421Z,86.90
2019-02-27T10:34:25.557Z,85.70
2019-02-27T10:36:55.478Z,83.00
2019-02-27T10:39:25.454Z,82.70
2019-02-27T10:41:55.379Z,81.80
2019-02-27T10:44:25.324Z,78.40
2019-02-27T10:46:57.314Z,77.80
2019-02-27T10:49:26.824Z,77.20
2019-02-27T10:51:56.734Z,76.80
2019-02-27T10:54:26.638Z,74.70
2019-02-27T10:56:57.189Z,73.80
2019-02-27T10:59:27.184Z,74.00
2019-02-27T11:01:57.291Z,73.10
2019-02-27T11:04:27.303Z,74.40
2019-02-27T11:06:57.341Z,74.30
2019-02-27T11:09:29.339Z,74.80
2019-02-27T11:11:59.295Z,74.10
2019-02-27T11:14:31.983Z,71.40
2019-02-27T11:17:02.704Z,70.90
2019-02-27T11:19:34.608Z,71.80
2019-02-27T11:22:04.202Z,71.60
2019-02-27T11:24:34.195Z,70.60
2019-02-27T11:27:06.179Z,70.00
2019-02-27T11:29:35.771Z,69.30
2019-02-27T11:32:05.729Z,71.80
2019-02-27T11:34:35.638Z,69.70
2019-02-27T11:37:05.760Z,70.40
2019-02-27T11:39:35.760Z,69.40
2019-02-27T11:42:05.891Z,69.20
2019-02-27T11:44:35.984Z,64.20
2019-02-27T11:47:05.912Z,61.10
2019-02-27T11:49:38.436Z,58.40
2019-02-27T11:52:07.510Z,55.50
2019-02-27T11:54:37.492Z,55.90
2019-02-27T11:57:07.622Z,56.90
2019-02-27T11:59:37.646Z,56.70
2019-02-27T12:02:07.675Z,56.50
2019-02-27T12:04:37.646Z,56.50
2019-02-27T12:07:07.770Z,55.60
2019-02-27T12:09:37.787Z,55.50
2019-02-27T12:12:07.735Z,55.80
2019-02-27T12:14:37.640Z,55.50
2019-02-27T12:17:07.564Z,55.50
2019-02-27T12:19:41.962Z,55.50
2019-02-27T12:22:09.052Z,55.20
2019-02-27T12:24:39.034Z,54.20
2019-02-27T12:27:13.740Z,53.90
2019-02-27T12:29:40.624Z,53.10
2019-02-27T12:32:10.737Z,51.70
2019-02-27T12:34:40.751Z,51.60
2019-02-27T12:37:23.762Z,49.60
2019-02-27T12:39:43.554Z,49.10
2019-02-27T12:42:13.635Z,50.30
2019-02-27T12:44:43.607Z,49.50
2019-02-27T12:47:13.989Z,49.50
2019-02-27T12:49:44.035Z,48.10
2019-02-27T12:52:14.079Z,48.60
2019-02-27T12:54:44.013Z,46.60
2019-02-27T12:57:17.418Z,47.80
2019-02-27T12:59:46.264Z,47.80
2019-02-27T13:02:16.788Z,49.40
2019-02-27T13:04:52.140Z,47.00
2019-02-27T13:07:19.644Z,46.90
2019-02-27T13:09:49.996Z,48.00
2019-02-27T13:12:20.371Z,49.80
2019-02-27T13:14:50.676Z,48.10
2019-02-27T13:17:21.424Z,47.30
2019-02-27T13:19:52.477Z,46.30
2019-02-27T13:22:22.412Z,47.50
2019-02-27T13:24:52.734Z,47.60
2019-02-27T13:27:22.635Z,48.80
2019-02-27T13:29:55.459Z,45.40
2019-02-27T13:32:27.314Z,47.50
2019-02-27T13:34:56.000Z,46.10
2019-02-27T13:37:25.988Z,48.80
2019-02-27T13:39:57.325Z,47.90
2019-02-27T13:42:27.463Z,48.90
2019-02-27T13:44:57.555Z,50.90
2019-02-27T13:47:30.681Z,49.80
2019-02-27T13:49:59.051Z,50.40
2019-02-27T13:52:29.031Z,48.10
2019-02-27T13:54:59.018Z,46.60
2019-02-27T13:57:28.874Z,46.70
2019-02-27T13:59:58.866Z,46.90
2019-02-27T14:02:29.049Z,45.80
2019-02-27T14:05:00.620Z,45.80
2019-02-27T14:07:30.457Z,45.70
2019-02-27T14:10:00.416Z,44.70
2019-02-27T14:12:33.151Z,46.00
2019-02-27T14:15:02.114Z,46.00
2019-02-27T14:17:32.003Z,43.40
2019-02-27T14:20:01.919Z,42.30
2019-02-27T14:22:31.814Z,42.70
2019-02-27T14:25:02.011Z,43.00
2019-02-27T14:27:32.300Z,43.70
2019-02-27T14:30:03.769Z,45.10
2019-02-27T14:32:33.776Z,46.70
2019-02-27T14:35:03.799Z,47.90
2019-02-27T14:37:33.780Z,49.30
2019-02-27T14:40:04.422Z,50.20
2019-02-27T14:42:35.311Z,49.80
2019-02-27T14:45:06.660Z,49.70
2019-02-27T14:47:36.658Z,49.30
2019-02-27T14:50:07.634Z,50.10
2019-02-27T14:52:37.573Z,49.80
2019-02-27T14:55:08.439Z,50.10
2019-02-27T14:57:38.372Z,51.60
2019-02-27T15:00:11.848Z,52.40
2019-02-27T15:02:41.871Z,52.60
2019-02-27T15:05:11.924Z,53.80
2019-02-27T15:07:41.899Z,54.40
2019-02-27T15:10:12.423Z,53.50
2019-02-27T15:12:42.353Z,53.70
2019-02-27T15:15:15.544Z,52.80
2019-02-27T15:17:45.662Z,53.10
2019-02-27T15:20:16.427Z,52.80
2019-02-27T15:22:46.403Z,53.30
2019-02-27T15:25:17.509Z,53.80
2019-02-27T15:27:47.644Z,54.10
2019-02-27T15:30:19.742Z,53.30
2019-02-27T15:32:49.751Z,54.10
2019-02-27T15:35:21.911Z,54.20
2019-02-27T15:37:51.815Z,54.30
2019-02-27T15:40:23.240Z,54.80
2019-02-27T15:42:53.408Z,54.80
2019-02-27T15:45:23.663Z,54.80
2019-02-27T15:47:53.571Z,54.60
2019-02-27T15:50:24.254Z,54.50
2019-02-27T15:52:54.185Z,54.40
2019-02-27T15:55:24.315Z,54.80
2019-02-27T15:57:54.311Z,55.60
2019-02-27T16:00:24.841Z,55.70
2019-02-27T16:02:54.850Z,56.10
2019-02-27T16:05:30.218Z,55.80
2019-02-27T16:07:56.549Z,55.40
2019-02-27T16:10:26.842Z,55.20
2019-02-27T16:12:59.967Z,55.50
2019-02-27T16:15:28.698Z,55.60
2019-02-27T16:17:58.738Z,55.70
2019-02-27T16:20:28.864Z,56.00
2019-02-27T16:23:04.249Z,56.20
2019-02-27T16:25:31.512Z,56.20
2019-02-27T16:28:01.509Z,56.40
2019-02-27T16:30:32.950Z,56.60
2019-02-27T16:33:03.017Z,56.50
2019-02-27T16:35:33.122Z,57.00
2019-02-27T16:38:03.108Z,57.30
2019-02-27T16:40:33.116Z,57.30
2019-02-27T16:43:03.147Z,57.90
2019-02-27T16:45:35.889Z,57.90
2019-02-27T16:48:05.657Z,58.50
2019-02-27T16:50:35.965Z,59.00
2019-02-27T16:53:05.981Z,60.30
2019-02-27T16:55:38.104Z,60.30
2019-02-27T16:58:08.559Z,59.90
2019-02-27T17:00:39.167Z,59.90
2019-02-27T17:03:12.813Z,60.50
2019-02-27T17:05:43.119Z,60.60
2019-02-27T17:08:12.328Z,61.50
2019-02-27T17:10:42.234Z,61.90
2019-02-27T17:13:15.441Z,62.50
2019-02-27T17:15:44.700Z,62.70
2019-02-27T17:18:14.654Z,62.40
2019-02-27T17:20:46.412Z,62.10
2019-02-27T17:23:16.267Z,63.00
2019-02-27T17:25:46.349Z,63.00
2019-02-27T17:28:16.280Z,64.50
2019-02-27T17:30:46.263Z,65.70
2019-02-27T17:33:16.175Z,65.50
2019-02-27T17:35:46.050Z,64.50
2019-02-27T17:38:16.094Z,64.00
2019-02-27T17:40:45.996Z,63.80
2019-02-27T17:43:16.037Z,63.70
2019-02-27T17:45:47.015Z,63.90
2019-02-27T17:48:17.432Z,66.10
2019-02-27T17:50:47.330Z,65.60
2019-02-27T17:53:17.300Z,67.10
2019-02-27T17:55:47.227Z,65.50
2019-02-27T17:58:17.211Z,65.70
2019-02-27T18:00:51.062Z,66.70
2019-02-27T18:03:20.169Z,68.00
2019-02-27T18:05:50.142Z,69.80
2019-02-27T18:08:20.194Z,71.20
2019-02-27T18:10:50.159Z,71.30
2019-02-27T18:13:20.215Z,69.80
2019-02-27T18:15:53.272Z,71.50
2019-02-27T18:18:21.771Z,72.30
2019-02-27T18:20:51.723Z,73.10
2019-02-27T18:23:24.578Z,73.70
2019-02-27T18:25:54.012Z,74.00
2019-02-27T18:28:24.063Z,74.90
2019-02-27T18:30:54.303Z,74.90
2019-02-27T18:33:24.531Z,75.00
2019-02-27T18:35:55.557Z,75.50
2019-02-27T18:38:27.912Z,76.30
2019-02-27T18:40:58.156Z,77.90
2019-02-27T18:43:30.127Z,78.00
2019-02-27T18:45:59.679Z,78.80
2019-02-27T18:48:29.632Z,79.50
2019-02-27T18:50:59.576Z,78.70
2019-02-27T18:53:29.486Z,79.00
2019-02-27T18:56:02.006Z,80.60
2019-02-27T18:58:31.074Z,81.30
2019-02-27T19:01:01.117Z,82.40
2019-02-27T19:03:31.063Z,82.80
2019-02-27T19:06:00.967Z,81.50
2019-02-27T19:08:30.871Z,81.30
2019-02-27T19:11:01.385Z,80.50
2019-02-27T19:13:32.331Z,80.20
2019-02-27T19:16:02.607Z,82.40
2019-02-27T19:18:32.643Z,81.20
2019-02-27T19:21:02.657Z,81.30
2019-02-27T19:23:32.716Z,82.00
2019-02-27T19:26:02.744Z,82.70
2019-02-27T19:28:32.658Z,81.40
2019-02-27T19:31:03.075Z,81.70
2019-02-27T19:33:35.814Z,83.30
2019-02-27T19:36:04.737Z,83.40
2019-02-27T19:38:35.200Z,84.90
2019-02-27T19:41:05.238Z,85.20
2019-02-27T19:43:35.147Z,87.00
2019-02-27T19:46:06.973Z,90.50
2019-02-27T19:48:36.767Z,91.10
2019-02-27T19:51:06.882Z,92.30
2019-02-27T19:53:39.410Z,93.70
2019-02-27T19:56:08.563Z,94.80
2019-02-27T19:58:38.583Z,96.00
2019-02-27T20:01:09.791Z,96.70
2019-02-27T20:03:39.938Z,97.40
2019-02-27T20:06:09.987Z,96.70
2019-02-27T20:08:44.415Z,96.70
2019-02-27T20:11:13.347Z,97.10
2019-02-27T20:13:48.589Z,97.00
2019-02-27T20:16:20.731Z,96.90
2019-02-27T20:18:54.839Z,97.30
2019-02-27T20:21:22.624Z,97.50
2019-02-27T20:23:52.551Z,97.00
2019-02-27T20:26:24.554Z,97.40
2019-02-27T20:28:54.376Z,97.70
2019-02-27T20:31:24.315Z,98.40
2019-02-27T20:33:54.367Z,97.80
2019-02-27T20:36:24.381Z,98.00
2019-02-27T20:38:54.372Z,97.90
2019-02-27T20:41:25.608Z,98.60
2019-02-27T20:43:55.883Z,99.10
2019-02-27T20:46:26.018Z,99.90
2019-02-27T20:48:56.099Z,99.40
2019-02-27T20:51:26.035Z,99.90
2019-02-27T20:53:56.535Z,99.50
2019-02-27T20:56:28.697Z,99.50
2019-02-27T20:58:58.339Z,99.20
2019-02-27T21:01:28.208Z,99.90
2019-02-27T21:04:01.439Z,99.90
2019-02-27T21:06:29.618Z,99.90
2019-02-27T21:08:59.584Z,99.90
2019-02-27T21:11:30.451Z,99.90
2019-02-27T21:14:02.396Z,99.90
2019-02-27T21:16:33.075Z,99.90
2019-02-27T21:19:03.214Z,99.90
2019-02-27T21:21:33.239Z,99.90
2019-02-27T21:24:05.564Z,99.90
2019-02-27T21:26:34.939Z,99.90
2019-02-27T21:29:05.241Z,99.90
2019-02-27T21:31:36.503Z,99.90
2019-02-27T21:34:06.379Z,99.90
2019-02-27T21:36:36.664Z,99.90
2019-02-27T21:39:08.383Z,99.90
2019-02-27T21:41:38.260Z,99.90
2019-02-27T21:44:08.131Z,99.90
2019-02-27T21:46:38.107Z,99.90
2019-02-27T21:49:08.459Z,99.90
2019-02-27T21:51:38.326Z,99.90
2019-02-27T21:54:08.199Z,99.90
2019-02-27T21:56:38.438Z,99.90
2019-02-27T21:59:08.684Z,99.90
2019-02-27T22:01:38.535Z,99.90
2019-02-27T22:04:09.768Z,99.90
2019-02-27T22:06:39.970Z,99.90
2019-02-27T22:09:13.652Z,99.90
2019-02-27T22:11:42.490Z,99.90
2019-02-27T22:14:12.371Z,99.90
2019-02-27T22:16:42.348Z,99.90
2019-02-27T22:19:12.283Z,99.90
2019-02-27T22:21:42.194Z,99.90
2019-02-27T22:24:12.067Z,99.90
2019-02-27T22:26:41.946Z,99.90
2019-02-27T22:29:11.812Z,99.90
2019-02-27T22:31:42.184Z,99.90
2019-02-27T22:34:12.054Z,99.90
2019-02-27T22:36:44.001Z,99.90
2019-02-27T22:39:13.444Z,99.90
2019-02-27T22:41:43.415Z,99.90
2019-02-27T22:44:13.948Z,99.90
2019-02-27T22:46:43.885Z,99.90
2019-02-27T22:49:13.788Z,99.90
2019-02-27T22:51:44.864Z,99.90
2019-02-27T22:54:15.239Z,99.90
2019-02-27T22:56:50.187Z,99.90
2019-02-27T22:59:16.650Z,99.90
2019-02-27T23:01:50.959Z,99.90
2019-02-27T23:04:21.156Z,99.90
2019-02-27T23:06:51.061Z,99.90
2019-02-27T23:09:25.543Z,99.90
2019-02-27T23:11:54.315Z,99.90
2019-02-27T23:14:24.358Z,99.90
2019-02-27T23:16:55.862Z,99.90
2019-02-27T23:19:26.148Z,99.90
2019-02-27T23:21:57.504Z,99.90
2019-02-27T23:24:28.213Z,99.90
2019-02-27T23:26:58.515Z,99.90
2019-02-27T23:29:28.862Z,99.90
2019-02-27T23:31:59.087Z,99.90
2019-02-27T23:34:29.307Z,99.90
2019-02-27T23:36:59.713Z,99.90
2019-02-27T23:39:29.996Z,99.90
2019-02-27T23:42:00.212Z,99.90
2019-02-27T23:44:30.416Z,99.90
2019-02-27T23:47:00.725Z,99.90
2019-02-27T23:49:30.945Z,99.90
2019-02-27T23:52:01.269Z,99.90
2019-02-27T23:54:35.397Z,99.90
2019-02-27T23:57:03.768Z,99.90
2019-02-27T23:59:35.552Z,99.90
